Houche-Al-Oumara, Lebanon
Current Conditions -  °F | °C
As of 10:00 AM on Wednesday 26 Nov 2014 (Local Time) from OLBA Reporting Station
Thunderstorm Thunderstorm  
Wind Chill: 57°   Ceiling: 2600
Heat Index: 57°   Visibility: 1.8mi
Dew Point: 50°   Wind: 12mph
Humidity: 77%   Direction: 200°SSW
Pressure: 29.85"   Gusts: 25mph
Location:  33.82°N, 35.85°E
Report Text: OLBA 260700Z 20010G22KT 170V260 3000 +TSSHRA FEW020VCB BKN026 14/10 Q1011 RE+RA
Loading
Personal Weather Stations






























Interactive Weather Map New forecast layout! Learn more

10-Day Weather Forecast

Advertisements
Track Severe Weather on mobile